sensor_id;sensor_type;location;lat;lon;timestamp;pressure;altitude;pressure_sealevel;temperature;humidity
63731;BME280;49747;51.334;6.830;2023-01-25T00:00:49;103156.72;;;9.35;52.61
63731;BME280;49747;51.334;6.830;2023-01-25T00:03:16;103156.59;;;9.40;52.59
63731;BME280;49747;51.334;6.830;2023-01-25T00:05:43;103154.88;;;9.37;52.14
63731;BME280;49747;51.334;6.830;2023-01-25T00:08:09;103144.31;;;9.35;51.85
63731;BME280;49747;51.334;6.830;2023-01-25T00:10:36;103151.44;;;9.33;51.92
63731;BME280;49747;51.334;6.830;2023-01-25T00:13:02;103147.91;;;9.33;52.22
63731;BME280;49747;51.334;6.830;2023-01-25T00:15:29;103138.31;;;9.29;51.90
63731;BME280;49747;51.334;6.830;2023-01-25T00:17:55;103143.88;;;9.20;52.04
63731;BME280;49747;51.334;6.830;2023-01-25T00:20:25;103151.84;;;9.20;51.72
63731;BME280;49747;51.334;6.830;2023-01-25T00:22:51;103140.41;;;9.18;51.71
63731;BME280;49747;51.334;6.830;2023-01-25T00:25:18;103145.97;;;9.08;51.74
63731;BME280;49747;51.334;6.830;2023-01-25T00:27:44;103147.66;;;9.11;52.23
63731;BME280;49747;51.334;6.830;2023-01-25T00:30:11;103130.78;;;9.13;54.05
63731;BME280;49747;51.334;6.830;2023-01-25T00:32:48;103135.13;;;9.16;54.02
63731;BME280;49747;51.334;6.830;2023-01-25T00:35:19;103127.97;;;9.20;54.00
63731;BME280;49747;51.334;6.830;2023-01-25T00:37:47;103123.50;;;9.22;54.20
63731;BME280;49747;51.334;6.830;2023-01-25T00:40:16;103120.84;;;9.22;53.68
63731;BME280;49747;51.334;6.830;2023-01-25T00:42:43;103118.06;;;9.26;53.06
63731;BME280;49747;51.334;6.830;2023-01-25T00:45:10;103126.88;;;9.27;53.86
63731;BME280;49747;51.334;6.830;2023-01-25T00:47:37;103117.94;;;9.31;53.31
63731;BME280;49747;51.334;6.830;2023-01-25T00:50:05;103108.19;;;9.31;52.90
63731;BME280;49747;51.334;6.830;2023-01-25T00:52:33;103116.94;;;9.35;52.60
63731;BME280;49747;51.334;6.830;2023-01-25T00:54:59;103105.44;;;9.34;51.93
63731;BME280;49747;51.334;6.830;2023-01-25T00:57:26;103108.97;;;9.35;51.66
63731;BME280;49747;51.334;6.830;2023-01-25T00:59:52;103113.31;;;9.37;51.76
63731;BME280;49747;51.334;6.830;2023-01-25T01:02:19;103108.88;;;9.38;51.89
63731;BME280;49747;51.334;6.830;2023-01-25T01:04:45;103114.19;;;9.38;51.82
63731;BME280;49747;51.334;6.830;2023-01-25T01:07:13;103109.69;;;9.40;52.22
63731;BME280;49747;51.334;6.830;2023-01-25T01:09:40;103099.94;;;9.41;52.63
63731;BME280;49747;51.334;6.830;2023-01-25T01:12:06;103101.72;;;9.42;52.27
63731;BME280;49747;51.334;6.830;2023-01-25T01:14:33;103101.59;;;9.45;52.23
63731;BME280;49747;51.334;6.830;2023-01-25T01:16:59;103106.81;;;9.48;52.69
63731;BME280;49747;51.334;6.830;2023-01-25T01:19:26;103102.47;;;9.45;52.22
63731;BME280;49747;51.334;6.830;2023-01-25T01:21:52;103106.91;;;9.45;51.72
63731;BME280;49747;51.334;6.830;2023-01-25T01:24:20;103103.34;;;9.46;52.16
63731;BME280;49747;51.334;6.830;2023-01-25T01:26:47;103109.47;;;9.48;52.63
63731;BME280;49747;51.334;6.830;2023-01-25T01:29:13;103116.50;;;9.49;52.48
63731;BME280;49747;51.334;6.830;2023-01-25T01:31:40;103108.53;;;9.49;52.18
63731;BME280;49747;51.334;6.830;2023-01-25T01:34:22;103113.84;;;9.50;52.33
63731;BME280;49747;51.334;6.830;2023-01-25T01:36:49;103110.31;;;9.50;51.71
63731;BME280;49747;51.334;6.830;2023-01-25T01:39:16;103104.16;;;9.48;51.86
63731;BME280;49747;51.334;6.830;2023-01-25T01:41:42;103097.84;;;9.52;52.63
63731;BME280;49747;51.334;6.830;2023-01-25T01:44:17;103095.25;;;9.50;52.14
63731;BME280;49747;51.334;6.830;2023-01-25T01:46:52;103101.44;;;9.51;52.40
63731;BME280;49747;51.334;6.830;2023-01-25T01:49:25;103095.34;;;9.47;51.71
63731;BME280;49747;51.334;6.830;2023-01-25T01:52:09;103094.38;;;9.50;51.53
63731;BME280;49747;51.334;6.830;2023-01-25T01:54:52;103085.78;;;9.42;51.61
63731;BME280;49747;51.334;6.830;2023-01-25T01:57:23;103091.81;;;9.47;51.28
63731;BME280;49747;51.334;6.830;2023-01-25T01:59:57;103087.38;;;9.47;51.59
63731;BME280;49747;51.334;6.830;2023-01-25T02:02:26;103086.44;;;9.50;52.03
63731;BME280;49747;51.334;6.830;2023-01-25T02:04:57;103087.28;;;9.50;52.13
63731;BME280;49747;51.334;6.830;2023-01-25T02:07:33;103088.97;;;9.53;52.35
63731;BME280;49747;51.334;6.830;2023-01-25T02:10:03;103087.19;;;9.53;52.17
63731;BME280;49747;51.334;6.830;2023-01-25T02:12:30;103085.53;;;9.49;52.33
63731;BME280;49747;51.334;6.830;2023-01-25T02:14:58;103082.00;;;9.50;52.16
63731;BME280;49747;51.334;6.830;2023-01-25T02:17:27;103082.84;;;9.51;52.43
63731;BME280;49747;51.334;6.830;2023-01-25T02:22:55;103097.03;;;9.50;51.96
63731;BME280;49747;51.334;6.830;2023-01-25T02:25:25;103085.81;;;9.40;51.96
63731;BME280;49747;51.334;6.830;2023-01-25T02:27:56;103085.88;;;9.38;51.62
63731;BME280;49747;51.334;6.830;2023-01-25T02:30:25;103079.66;;;9.40;51.71
63731;BME280;49747;51.334;6.830;2023-01-25T02:32:52;103077.84;;;9.40;52.35
63731;BME280;49747;51.334;6.830;2023-01-25T02:35:33;103081.28;;;9.44;52.32
63731;BME280;49747;51.334;6.830;2023-01-25T02:38:01;103077.72;;;9.45;52.46
63731;BME280;49747;51.334;6.830;2023-01-25T02:40:30;103075.94;;;9.45;52.66
63731;BME280;49747;51.334;6.830;2023-01-25T02:42:58;103080.34;;;9.46;53.03
63731;BME280;49747;51.334;6.830;2023-01-25T02:45:28;103080.22;;;9.49;53.19
63731;BME280;49747;51.334;6.830;2023-01-25T02:47:55;103074.91;;;9.49;52.89
63731;BME280;49747;51.334;6.830;2023-01-25T02:50:21;103080.13;;;9.52;52.32
63731;BME280;49747;51.334;6.830;2023-01-25T02:52:48;103075.69;;;9.53;52.26
63731;BME280;49747;51.334;6.830;2023-01-25T02:55:15;103079.22;;;9.53;51.87
63731;BME280;49747;51.334;6.830;2023-01-25T02:57:43;103073.03;;;9.53;51.85
63731;BME280;49747;51.334;6.830;2023-01-25T03:00:10;103077.53;;;9.51;51.43
63731;BME280;49747;51.334;6.830;2023-01-25T03:02:37;103081.88;;;9.53;51.75
63731;BME280;49747;51.334;6.830;2023-01-25T03:05:04;103077.47;;;9.54;52.04
63731;BME280;49747;51.334;6.830;2023-01-25T03:07:31;103079.22;;;9.53;52.47
63731;BME280;49747;51.334;6.830;2023-01-25T03:09:58;103083.56;;;9.56;52.67
63731;BME280;49747;51.334;6.830;2023-01-25T03:12:25;103080.00;;;9.57;52.54
63731;BME280;49747;51.334;6.830;2023-01-25T03:14:52;103078.25;;;9.56;52.41
63731;BME280;49747;51.334;6.830;2023-01-25T03:17:18;103077.34;;;9.57;52.34
63731;BME280;49747;51.334;6.830;2023-01-25T03:19:45;103072.91;;;9.57;52.88
63731;BME280;49747;51.334;6.830;2023-01-25T03:22:11;103072.03;;;9.57;52.87
63731;BME280;49747;51.334;6.830;2023-01-25T03:24:39;103067.59;;;9.57;52.54
63731;BME280;49747;51.334;6.830;2023-01-25T03:27:06;103065.88;;;9.56;52.83
63731;BME280;49747;51.334;6.830;2023-01-25T03:29:46;103056.97;;;9.57;52.89
63731;BME280;49747;51.334;6.830;2023-01-25T03:32:17;103059.53;;;9.60;53.20
63731;BME280;49747;51.334;6.830;2023-01-25T03:34:44;103063.13;;;9.59;52.74
63731;BME280;49747;51.334;6.830;2023-01-25T03:37:11;103056.88;;;9.60;52.41
63731;BME280;49747;51.334;6.830;2023-01-25T03:39:39;103049.78;;;9.61;52.46
63731;BME280;49747;51.334;6.830;2023-01-25T03:42:06;103051.56;;;9.62;52.45
63731;BME280;49747;51.334;6.830;2023-01-25T03:44:33;103048.91;;;9.62;52.80
63731;BME280;49747;51.334;6.830;2023-01-25T03:46:59;103045.38;;;9.61;54.00
63731;BME280;49747;51.334;6.830;2023-01-25T03:49:27;103038.31;;;9.60;53.66
63731;BME280;49747;51.334;6.830;2023-01-25T03:51:54;103037.41;;;9.61;53.09
63731;BME280;49747;51.334;6.830;2023-01-25T03:54:26;103040.06;;;9.61;52.36
63731;BME280;49747;51.334;6.830;2023-01-25T03:56:53;103038.28;;;9.62;53.23
63731;BME280;49747;51.334;6.830;2023-01-25T03:59:23;103038.38;;;9.59;52.75
63731;BME280;49747;51.334;6.830;2023-01-25T04:01:50;103028.63;;;9.59;52.30
63731;BME280;49747;51.334;6.830;2023-01-25T04:04:17;103034.84;;;9.58;52.51
63731;BME280;49747;51.334;6.830;2023-01-25T04:06:45;103028.63;;;9.59;52.20
63731;BME280;49747;51.334;6.830;2023-01-25T04:09:12;103026.84;;;9.60;51.85
63731;BME280;49747;51.334;6.830;2023-01-25T04:11:44;103022.44;;;9.59;52.17
63731;BME280;49747;51.334;6.830;2023-01-25T04:14:13;103021.53;;;9.60;52.87
63731;BME280;49747;51.334;6.830;2023-01-25T04:16:46;103019.78;;;9.59;53.03
63731;BME280;49747;51.334;6.830;2023-01-25T04:19:26;103013.56;;;9.60;52.91
63731;BME280;49747;51.334;6.830;2023-01-25T04:21:56;103007.44;;;9.58;53.56
63731;BME280;49747;51.334;6.830;2023-01-25T04:24:27;103001.22;;;9.59;52.95
63731;BME280;49747;51.334;6.830;2023-01-25T04:26:53;102991.53;;;9.58;52.48
63731;BME280;49747;51.334;6.830;2023-01-25T04:29:20;102992.47;;;9.55;52.17
63731;BME280;49747;51.334;6.830;2023-01-25T04:32:01;102990.69;;;9.56;52.23
63731;BME280;49747;51.334;6.830;2023-01-25T04:34:28;102992.41;;;9.58;51.81
63731;BME280;49747;51.334;6.830;2023-01-25T04:36:54;102991.53;;;9.58;52.39
63731;BME280;49747;51.334;6.830;2023-01-25T04:39:23;102990.63;;;9.57;52.25
63731;BME280;49747;51.334;6.830;2023-01-25T04:41:50;102993.25;;;9.59;52.68
63731;BME280;49747;51.334;6.830;2023-01-25T04:44:16;102987.97;;;9.57;52.51
63731;BME280;49747;51.334;6.830;2023-01-25T04:46:44;102987.09;;;9.58;52.75
63731;BME280;49747;51.334;6.830;2023-01-25T04:49:11;102985.28;;;9.59;52.11
63731;BME280;49747;51.334;6.830;2023-01-25T04:51:37;102981.72;;;9.60;51.90
63731;BME280;49747;51.334;6.830;2023-01-25T04:54:04;102978.19;;;9.59;51.92
63731;BME280;49747;51.334;6.830;2023-01-25T04:56:32;102959.78;;;9.55;52.75
63731;BME280;49747;51.334;6.830;2023-01-25T04:58:58;102973.66;;;9.63;53.08
63731;BME280;49747;51.334;6.830;2023-01-25T05:01:25;102971.94;;;9.62;53.50
63731;BME280;49747;51.334;6.830;2023-01-25T05:03:52;102969.28;;;9.62;53.61
63731;BME280;49747;51.334;6.830;2023-01-25T05:06:28;102974.59;;;9.62;52.63
63731;BME280;49747;51.334;6.830;2023-01-25T05:08:55;102965.78;;;9.61;52.24
63731;BME280;49747;51.334;6.830;2023-01-25T05:11:21;102967.44;;;9.64;52.53
63731;BME280;49747;51.334;6.830;2023-01-25T05:13:54;102963.91;;;9.63;52.22
63731;BME280;49747;51.334;6.830;2023-01-25T05:16:26;102963.16;;;9.60;51.85
63731;BME280;49747;51.334;6.830;2023-01-25T05:18:54;102971.09;;;9.60;52.46
63731;BME280;49747;51.334;6.830;2023-01-25T05:21:28;102967.53;;;9.61;51.92
63731;BME280;49747;51.334;6.830;2023-01-25T05:24:13;102968.44;;;9.60;52.55
63731;BME280;49747;51.334;6.830;2023-01-25T05:26:40;102967.59;;;9.59;52.45
63731;BME280;49747;51.334;6.830;2023-01-25T05:29:34;102966.72;;;9.59;52.99
63731;BME280;49747;51.334;6.830;2023-01-25T05:32:11;102964.94;;;9.59;52.76
63731;BME280;49747;51.334;6.830;2023-01-25T05:34:38;102956.97;;;9.59;52.86
63731;BME280;49747;51.334;6.830;2023-01-25T05:37:07;102962.22;;;9.61;53.23
63731;BME280;49747;51.334;6.830;2023-01-25T05:39:38;102952.59;;;9.58;53.33
63731;BME280;49747;51.334;6.830;2023-01-25T05:42:11;102955.09;;;9.63;53.13
63731;BME280;49747;51.334;6.830;2023-01-25T05:44:38;102963.91;;;9.63;52.97
63731;BME280;49747;51.334;6.830;2023-01-25T05:47:06;102965.63;;;9.65;53.25
63731;BME280;49747;51.334;6.830;2023-01-25T05:49:34;102953.22;;;9.65;53.50
63731;BME280;49747;51.334;6.830;2023-01-25T05:52:02;102959.47;;;9.64;53.95
63731;BME280;49747;51.334;6.830;2023-01-25T05:54:29;102955.88;;;9.65;53.35
63731;BME280;49747;51.334;6.830;2023-01-25T05:57:01;102960.25;;;9.68;53.31
63731;BME280;49747;51.334;6.830;2023-01-25T05:59:28;102962.91;;;9.68;53.09
63731;BME280;49747;51.334;6.830;2023-01-25T06:01:57;102956.66;;;9.69;53.08
63731;BME280;49747;51.334;6.830;2023-01-25T06:04:23;102951.31;;;9.70;52.89
63731;BME280;49747;51.334;6.830;2023-01-25T06:06:50;102954.13;;;9.66;52.44
63731;BME280;49747;51.334;6.830;2023-01-25T06:09:16;102941.06;;;10.11;89.68
63731;BME280;49747;51.334;6.830;2023-01-25T06:11:44;102947.84;;;9.68;61.95
63731;BME280;49747;51.334;6.830;2023-01-25T06:14:12;102943.66;;;8.75;57.52
63731;BME280;49747;51.334;6.830;2023-01-25T06:16:39;102939.84;;;8.22;58.03
63731;BME280;49747;51.334;6.830;2023-01-25T06:19:28;102943.34;;;7.54;60.38
63731;BME280;49747;51.334;6.830;2023-01-25T06:22:15;102959.63;;;6.98;62.42
63731;BME280;49747;51.334;6.830;2023-01-25T06:24:42;102956.09;;;6.56;64.00
63731;BME280;49747;51.334;6.830;2023-01-25T06:27:09;102959.16;;;6.34;65.90
63731;BME280;49747;51.334;6.830;2023-01-25T06:29:38;102963.78;;;6.22;65.84
63731;BME280;49747;51.334;6.830;2023-01-25T06:32:04;102958.59;;;6.17;66.62
63731;BME280;49747;51.334;6.830;2023-01-25T06:34:31;102959.59;;;6.10;67.12
63731;BME280;49747;51.334;6.830;2023-01-25T06:36:57;102954.56;;;5.96;66.80
63731;BME280;49747;51.334;6.830;2023-01-25T06:39:24;102959.97;;;5.87;67.34
63731;BME280;49747;51.334;6.830;2023-01-25T06:41:51;102956.47;;;5.85;67.38
63731;BME280;49747;51.334;6.830;2023-01-25T06:44:17;102950.53;;;5.72;68.16
63731;BME280;49747;51.334;6.830;2023-01-25T06:46:43;102943.28;;;5.85;67.37
63731;BME280;49747;51.334;6.830;2023-01-25T06:49:10;102964.72;;;5.66;67.68
63731;BME280;49747;51.334;6.830;2023-01-25T06:51:37;102956.91;;;5.59;68.01
63731;BME280;49747;51.334;6.830;2023-01-25T06:54:03;102961.34;;;5.57;68.54
63731;BME280;49747;51.334;6.830;2023-01-25T06:56:30;102958.03;;;5.44;68.88
63731;BME280;49747;51.334;6.830;2023-01-25T06:58:58;102963.44;;;5.33;69.79
63731;BME280;49747;51.334;6.830;2023-01-25T07:01:24;102962.44;;;5.42;69.17
63731;BME280;49747;51.334;6.830;2023-01-25T07:03:57;102961.53;;;5.44;68.99
63731;BME280;49747;51.334;6.830;2023-01-25T07:06:25;102964.16;;;5.44;69.04
63731;BME280;49747;51.334;6.830;2023-01-25T07:09:01;102953.66;;;5.41;69.10
63731;BME280;49747;51.334;6.830;2023-01-25T07:11:27;102955.50;;;5.36;69.53
63731;BME280;49747;51.334;6.830;2023-01-25T07:13:54;102956.44;;;5.32;69.77
63731;BME280;49747;51.334;6.830;2023-01-25T07:16:20;102952.94;;;5.30;69.77
63731;BME280;49747;51.334;6.830;2023-01-25T07:18:47;102954.00;;;5.18;69.42
63731;BME280;49747;51.334;6.830;2023-01-25T07:21:17;102958.50;;;5.12;69.67
63731;BME280;49747;51.334;6.830;2023-01-25T07:23:43;102959.31;;;5.15;70.08
63731;BME280;49747;51.334;6.830;2023-01-25T07:26:29;102957.78;;;4.99;70.20
63731;BME280;49747;51.334;6.830;2023-01-25T07:28:57;102961.13;;;5.10;70.49
63731;BME280;49747;51.334;6.830;2023-01-25T07:31:25;102962.03;;;5.11;70.29
63731;BME280;49747;51.334;6.830;2023-01-25T07:33:56;102961.19;;;5.07;70.38
63731;BME280;49747;51.334;6.830;2023-01-25T07:36:24;102962.91;;;5.11;70.36
63731;BME280;49747;51.334;6.830;2023-01-25T07:38:55;102967.59;;;4.86;70.92
63731;BME280;49747;51.334;6.830;2023-01-25T07:41:23;102956.88;;;5.03;70.77
63731;BME280;49747;51.334;6.830;2023-01-25T07:43:51;102955.06;;;5.05;70.80
63731;BME280;49747;51.334;6.830;2023-01-25T07:46:28;102957.06;;;4.88;71.30
63731;BME280;49747;51.334;6.830;2023-01-25T07:48:55;102946.50;;;4.89;71.45
63731;BME280;49747;51.334;6.830;2023-01-25T07:51:24;102954.19;;;5.05;71.08
63731;BME280;49747;51.334;6.830;2023-01-25T07:53:57;102946.44;;;4.94;70.95
63731;BME280;49747;51.334;6.830;2023-01-25T07:56:42;102947.28;;;4.96;70.87
63731;BME280;49747;51.334;6.830;2023-01-25T07:59:09;102948.25;;;4.89;70.88
63731;BME280;49747;51.334;6.830;2023-01-25T08:01:36;102940.22;;;5.00;70.30
63731;BME280;49747;51.334;6.830;2023-01-25T08:04:03;102939.75;;;4.68;70.65
63731;BME280;49747;51.334;6.830;2023-01-25T08:06:33;102943.72;;;5.00;70.30
63731;BME280;49747;51.334;6.830;2023-01-25T08:09:10;102939.38;;;4.96;69.82
63731;BME280;49747;51.334;6.830;2023-01-25T08:11:37;102934.03;;;5.04;70.08
63731;BME280;49747;51.334;6.830;2023-01-25T08:14:04;102941.88;;;5.07;70.56
63731;BME280;49747;51.334;6.830;2023-01-25T08:16:31;102939.22;;;5.08;70.18
63731;BME280;49747;51.334;6.830;2023-01-25T08:18:59;102929.69;;;4.98;70.44
63731;BME280;49747;51.334;6.830;2023-01-25T08:21:27;102945.56;;;4.95;70.68
63731;BME280;49747;51.334;6.830;2023-01-25T08:23:57;102943.78;;;4.96;69.79
63731;BME280;49747;51.334;6.830;2023-01-25T08:26:25;102946.34;;;4.99;70.14
63731;BME280;49747;51.334;6.830;2023-01-25T08:28:52;102944.66;;;4.96;70.52
63731;BME280;49747;51.334;6.830;2023-01-25T08:31:21;102932.53;;;4.84;70.74
63731;BME280;49747;51.334;6.830;2023-01-25T08:33:49;102937.81;;;4.81;70.81
63731;BME280;49747;51.334;6.830;2023-01-25T08:36:17;102936.25;;;4.66;71.64
63731;BME280;49747;51.334;6.830;2023-01-25T08:38:45;102936.97;;;4.78;71.92
63731;BME280;49747;51.334;6.830;2023-01-25T08:41:15;102933.41;;;4.83;71.08
63731;BME280;49747;51.334;6.830;2023-01-25T08:43:43;102932.41;;;4.90;70.97
63731;BME280;49747;51.334;6.830;2023-01-25T08:46:10;102936.88;;;4.87;71.06
63731;BME280;49747;51.334;6.830;2023-01-25T08:48:37;102933.44;;;4.80;71.86
63731;BME280;49747;51.334;6.830;2023-01-25T08:51:07;102930.94;;;4.71;71.96
63731;BME280;49747;51.334;6.830;2023-01-25T08:53:34;102936.47;;;4.47;72.59
63731;BME280;49747;51.334;6.830;2023-01-25T08:56:08;102938.06;;;4.61;71.83
63731;BME280;49747;51.334;6.830;2023-01-25T08:58:37;102923.75;;;4.84;70.82
63731;BME280;49747;51.334;6.830;2023-01-25T09:01:06;102921.03;;;4.91;70.48
63731;BME280;49747;51.334;6.830;2023-01-25T09:03:36;102925.44;;;4.88;71.04
63731;BME280;49747;51.334;6.830;2023-01-25T09:06:03;102923.56;;;4.99;70.28
63731;BME280;49747;51.334;6.830;2023-01-25T09:08:31;102917.53;;;4.91;70.26
63731;BME280;49747;51.334;6.830;2023-01-25T09:11:06;102920.97;;;4.93;70.44
63731;BME280;49747;51.334;6.830;2023-01-25T09:13:33;102915.69;;;4.96;71.16
63731;BME280;49747;51.334;6.830;2023-01-25T09:16:01;102911.31;;;4.93;71.39
63731;BME280;49747;51.334;6.830;2023-01-25T09:18:29;102915.88;;;4.81;71.28
63731;BME280;49747;51.334;6.830;2023-01-25T09:20:56;102920.16;;;4.89;71.57
63731;BME280;49747;51.334;6.830;2023-01-25T09:23:24;102914.84;;;4.92;71.08
63731;BME280;49747;51.334;6.830;2023-01-25T09:25:57;102909.44;;;5.02;70.43
63731;BME280;49747;51.334;6.830;2023-01-25T09:28:25;102903.47;;;4.89;70.88
63731;BME280;49747;51.334;6.830;2023-01-25T09:30:56;102906.91;;;4.96;71.24
63731;BME280;49747;51.334;6.830;2023-01-25T09:34:02;102901.72;;;4.89;70.77
63731;BME280;49747;51.334;6.830;2023-01-25T09:36:29;102900.06;;;4.84;71.82
63731;BME280;49747;51.334;6.830;2023-01-25T09:38:55;102903.72;;;4.70;71.63
63731;BME280;49747;51.334;6.830;2023-01-25T09:41:37;102895.78;;;4.75;72.06
63731;BME280;49747;51.334;6.830;2023-01-25T09:44:23;102890.50;;;4.75;72.32
63731;BME280;49747;51.334;6.830;2023-01-25T09:49:49;102890.88;;;4.46;72.78
63731;BME280;49747;51.334;6.830;2023-01-25T09:55:12;102888.75;;;4.76;72.54
63731;BME280;49747;51.334;6.830;2023-01-25T09:57:41;102880.06;;;4.69;73.00
63731;BME280;49747;51.334;6.830;2023-01-25T10:00:37;102885.19;;;4.78;72.85
63731;BME280;49747;51.334;6.830;2023-01-25T10:03:10;102883.47;;;4.74;73.35
63731;BME280;49747;51.334;6.830;2023-01-25T10:05:44;102890.44;;;4.80;72.81
63731;BME280;49747;51.334;6.830;2023-01-25T10:10:57;102886.94;;;4.79;72.32
63731;BME280;49747;51.334;6.830;2023-01-25T10:13:27;102873.03;;;4.71;72.67
63731;BME280;49747;51.334;6.830;2023-01-25T10:16:13;102864.38;;;4.60;72.64
63731;BME280;49747;51.334;6.830;2023-01-25T10:18:58;102868.69;;;4.67;73.05
63731;BME280;49747;51.334;6.830;2023-01-25T10:21:37;102867.13;;;4.52;73.08
63731;BME280;49747;51.334;6.830;2023-01-25T10:26:56;102872.16;;;4.69;73.28
63731;BME280;49747;51.334;6.830;2023-01-25T10:29:30;102871.25;;;4.70;73.33
63731;BME280;49747;51.334;6.830;2023-01-25T10:32:24;102860.72;;;4.70;73.72
63731;BME280;49747;51.334;6.830;2023-01-25T10:34:54;102859.72;;;4.79;73.27
63731;BME280;49747;51.334;6.830;2023-01-25T10:37:28;102860.66;;;4.76;73.48
63731;BME280;49747;51.334;6.830;2023-01-25T10:40:01;102851.78;;;4.83;72.85
63731;BME280;49747;51.334;6.830;2023-01-25T10:42:35;102852.84;;;4.68;73.08
63731;BME280;49747;51.334;6.830;2023-01-25T10:45:10;102837.88;;;4.72;72.73
63731;BME280;49747;51.334;6.830;2023-01-25T10:47:40;102842.25;;;4.73;72.19
63731;BME280;49747;51.334;6.830;2023-01-25T10:50:08;102832.50;;;4.78;72.94
63731;BME280;49747;51.334;6.830;2023-01-25T10:52:35;102837.88;;;4.70;73.79
63731;BME280;49747;51.334;6.830;2023-01-25T10:55:13;102823.84;;;4.70;74.46
63731;BME280;49747;51.334;6.830;2023-01-25T10:57:47;102820.44;;;4.65;74.79
63731;BME280;49747;51.334;6.830;2023-01-25T11:00:39;102818.56;;;4.73;74.19
63731;BME280;49747;51.334;6.830;2023-01-25T11:03:19;102817.59;;;4.80;73.60
63731;BME280;49747;51.334;6.830;2023-01-25T11:05:56;102805.63;;;4.56;74.56
63731;BME280;49747;51.334;6.830;2023-01-25T11:10:57;102803.72;;;4.66;74.29
63731;BME280;49747;51.334;6.830;2023-01-25T11:13:26;102792.44;;;4.58;74.17
63731;BME280;49747;51.334;6.830;2023-01-25T11:18:29;102795.00;;;4.62;73.75
63731;BME280;49747;51.334;6.830;2023-01-25T11:21:13;102795.72;;;4.75;74.22
63731;BME280;49747;51.334;6.830;2023-01-25T11:24:14;102787.06;;;4.67;74.11
63731;BME280;49747;51.334;6.830;2023-01-25T11:26:42;102780.06;;;4.64;73.81
63731;BME280;49747;51.334;6.830;2023-01-25T11:29:13;102781.81;;;4.67;74.21
63731;BME280;49747;51.334;6.830;2023-01-25T11:31:43;102771.13;;;4.76;73.91
63731;BME280;49747;51.334;6.830;2023-01-25T11:34:20;102765.94;;;4.70;73.30
63731;BME280;49747;51.334;6.830;2023-01-25T11:39:38;102757.91;;;4.78;73.76
63731;BME280;49747;51.334;6.830;2023-01-25T11:45:33;102734.41;;;4.65;74.54
63731;BME280;49747;51.334;6.830;2023-01-25T11:51:12;102717.72;;;4.66;74.45
63731;BME280;49747;51.334;6.830;2023-01-25T11:53:52;102726.34;;;4.75;74.29
63731;BME280;49747;51.334;6.830;2023-01-25T11:59:26;102710.63;;;4.70;74.48
63731;BME280;49747;51.334;6.830;2023-01-25T12:02:25;102707.94;;;4.75;74.06
63731;BME280;49747;51.334;6.830;2023-01-25T12:16:01;102668.25;;;3.69;77.31
63731;BME280;49747;51.334;6.830;2023-01-25T12:19:06;102660.03;;;3.94;77.84
63731;BME280;49747;51.334;6.830;2023-01-25T12:22:06;102651.59;;;4.32;76.43
63731;BME280;49747;51.334;6.830;2023-01-25T12:24:53;102639.06;;;4.48;76.13
63731;BME280;49747;51.334;6.830;2023-01-25T12:30:10;102615.47;;;6.54;100.00
63731;BME280;49747;51.334;6.830;2023-01-25T12:32:45;102611.59;;;7.33;100.00
63731;BME280;49747;51.334;6.830;2023-01-25T12:35:37;102616.41;;;5.34;73.19
63731;BME280;49747;51.334;6.830;2023-01-25T12:41:05;102606.72;;;5.34;73.47
63731;BME280;49747;51.334;6.830;2023-01-25T12:49:24;102595.69;;;4.69;74.81
63731;BME280;49747;51.334;6.830;2023-01-25T12:51:53;102582.09;;;4.44;76.10
63731;BME280;49747;51.334;6.830;2023-01-25T12:54:27;102583.19;;;4.32;77.43
63731;BME280;49747;51.334;6.830;2023-01-25T12:57:15;102568.75;;;4.04;78.31
63731;BME280;49747;51.334;6.830;2023-01-25T13:00:06;102562.75;;;4.47;77.31
63731;BME280;49747;51.334;6.830;2023-01-25T13:02:58;102552.03;;;4.59;75.72
63731;BME280;49747;51.334;6.830;2023-01-25T13:06:03;102550.25;;;4.58;76.17
63731;BME280;49747;51.334;6.830;2023-01-25T13:08:53;102547.50;;;4.65;76.12
63731;BME280;49747;51.334;6.830;2023-01-25T13:11:38;102533.13;;;4.82;74.28
63731;BME280;49747;51.334;6.830;2023-01-25T13:16:44;102526.19;;;4.79;75.18
63731;BME280;49747;51.334;6.830;2023-01-25T13:19:22;102515.50;;;4.87;74.44
63731;BME280;49747;51.334;6.830;2023-01-25T13:22:04;102518.81;;;4.97;75.05
63731;BME280;49747;51.334;6.830;2023-01-25T13:24:32;102510.03;;;4.96;74.67
63731;BME280;49747;51.334;6.830;2023-01-25T13:27:02;102502.19;;;4.93;74.43
63731;BME280;49747;51.334;6.830;2023-01-25T13:32:03;102507.31;;;5.01;74.42
63731;BME280;49747;51.334;6.830;2023-01-25T13:37:00;102499.63;;;4.90;74.36
63731;BME280;49747;51.334;6.830;2023-01-25T13:42:27;102499.72;;;4.87;75.36
63731;BME280;49747;51.334;6.830;2023-01-25T13:45:00;102495.41;;;4.83;75.40
63731;BME280;49747;51.334;6.830;2023-01-25T13:47:30;102494.59;;;4.79;75.39
63731;BME280;49747;51.334;6.830;2023-01-25T13:52:30;102495.31;;;4.86;75.27
63731;BME280;49747;51.334;6.830;2023-01-25T13:54:57;102492.69;;;4.86;75.20
63731;BME280;49747;51.334;6.830;2023-01-25T13:57:29;102488.56;;;4.73;75.21
63731;BME280;49747;51.334;6.830;2023-01-25T14:00:00;102483.09;;;4.82;74.55
63731;BME280;49747;51.334;6.830;2023-01-25T14:02:36;102482.13;;;4.87;74.98
63731;BME280;49747;51.334;6.830;2023-01-25T14:05:05;102482.38;;;4.75;75.62
63731;BME280;49747;51.334;6.830;2023-01-25T14:07:34;102471.78;;;4.78;75.28
63731;BME280;49747;51.334;6.830;2023-01-25T14:10:13;102479.66;;;4.78;75.57
63731;BME280;49747;51.334;6.830;2023-01-25T14:12:42;102475.50;;;4.68;75.38
63731;BME280;49747;51.334;6.830;2023-01-25T14:15:30;102473.84;;;4.62;75.65
63731;BME280;49747;51.334;6.830;2023-01-25T14:18:17;102477.06;;;4.77;75.44
63731;BME280;49747;51.334;6.830;2023-01-25T14:20:49;102472.88;;;4.68;75.67
63731;BME280;49747;51.334;6.830;2023-01-25T14:23:27;102476.50;;;4.61;75.54
63731;BME280;49747;51.334;6.830;2023-01-25T14:25:55;102470.09;;;4.74;75.23
63731;BME280;49747;51.334;6.830;2023-01-25T14:28:25;102466.88;;;4.60;75.82